Time;durP1;ratioP1;P1;durP2;ratioP2;P2;SDS_P1;SDS_P2;PMS_P1;PMS_P2;Temp;Humidity;BMP_temperature;BMP_pressure;BME280_temperature;BME280_humidity;BME280_pressure;Samples;Min_cycle;Max_cycle;Signal;HPM_P1;HPM_P2
2023/03/21 00:00:58;;;;;;;;;;;;;;;8.70;71.64;101067.66;107824;1253;61442;-81
2023/03/21 00:03:32;;;;;;;;;;;;;;;8.71;71.61;101065.76;107639;1254;125406;-82
2023/03/21 00:06:04;;;;;;;;;;;;;;;8.72;71.65;101064.77;107864;1253;66096;-82
2023/03/21 00:08:31;;;;;;;;;;;;;;;8.74;71.57;101063.45;108199;1254;72700;-82
2023/03/21 00:10:58;;;;;;;;;;;;;;;8.75;71.57;101058.56;108245;1254;124532;-82
2023/03/21 00:13:27;;;;;;;;;;;;;;;8.75;71.51;101058.59;108184;1260;60655;-82
2023/03/21 00:15:54;;;;;;;;;;;;;;;8.76;71.59;101060.55;107480;1254;125383;-82
2023/03/21 00:18:21;;;;;;;;;;;;;;;8.77;71.70;101058.98;107432;1254;67041;-82
2023/03/21 00:21:02;;;;;;;;;;;;;;;8.78;71.65;101053.77;107418;1257;72276;-82
2023/03/21 00:23:29;;;;;;;;;;;;;;;8.78;71.62;101053.94;107144;1256;124221;-82
2023/03/21 00:25:57;;;;;;;;;;;;;;;8.77;71.64;101050.95;107710;1254;62159;-82
2023/03/21 00:28:26;;;;;;;;;;;;;;;8.75;71.57;101050.89;107328;1259;124334;-82
2023/03/21 00:30:59;;;;;;;;;;;;;;;8.72;71.61;101049.70;107506;1258;65828;-82
2023/03/21 00:33:26;;;;;;;;;;;;;;;8.70;71.74;101048.25;107624;1254;72437;-83
2023/03/21 00:35:53;;;;;;;;;;;;;;;8.70;71.76;101045.26;107591;1254;59364;-82
2023/03/21 00:38:20;;;;;;;;;;;;;;;8.69;71.78;101042.08;107374;1259;61305;-81
2023/03/21 00:40:48;;;;;;;;;;;;;;;8.68;71.78;101037.49;107226;1253;124084;-82
2023/03/21 00:43:22;;;;;;;;;;;;;;;8.65;71.76;101037.74;107534;1254;67118;-82
2023/03/21 00:45:50;;;;;;;;;;;;;;;8.63;71.79;101034.14;107343;1257;124411;-81
2023/03/21 00:48:17;;;;;;;;;;;;;;;8.55;71.74;101037.89;107852;1254;59897;-82
2023/03/21 00:50:45;;;;;;;;;;;;;;;8.49;71.96;101043.92;107662;1256;59640;-82
2023/03/21 00:53:13;;;;;;;;;;;;;;;8.48;72.13;101041.83;107280;1263;125003;-81
2023/03/21 00:55:40;;;;;;;;;;;;;;;8.50;72.15;101045.23;107345;1256;65748;-81
2023/03/21 00:58:07;;;;;;;;;;;;;;;8.50;72.12;101050.30;107530;1259;125145;-82
2023/03/21 01:00:35;;;;;;;;;;;;;;;8.50;72.21;101050.30;107789;1259;59536;-80
2023/03/21 01:03:07;;;;;;;;;;;;;;;8.48;72.18;101050.23;107266;1259;59297;-81
2023/03/21 01:08:22;;;;;;;;;;;;;;;8.44;72.29;101047.42;107077;1261;66545;-81
2023/03/21 01:10:50;;;;;;;;;;;;;;;8.42;72.27;101047.52;106875;1257;124810;-81
2023/03/21 01:13:17;;;;;;;;;;;;;;;8.42;72.38;101046.83;107047;1257;60180;-82
2023/03/21 01:15:45;;;;;;;;;;;;;;;8.45;72.56;101046.61;107171;1259;125069;-81
2023/03/21 01:18:12;;;;;;;;;;;;;;;8.45;72.43;101045.91;107229;1258;73810;-81
2023/03/21 01:20:40;;;;;;;;;;;;;;;8.47;72.51;101048.76;107257;1260;67106;-81
2023/03/21 01:23:07;;;;;;;;;;;;;;;8.50;72.55;101046.08;107259;1257;124290;-81
2023/03/21 01:25:34;;;;;;;;;;;;;;;8.51;72.45;101042.81;107469;1257;60168;-81
2023/03/21 01:28:01;;;;;;;;;;;;;;;8.53;72.43;101041.64;107174;1259;124423;-81
2023/03/21 01:30:28;;;;;;;;;;;;;;;8.50;72.37;101040.51;107334;1256;73374;-81
2023/03/21 01:32:55;;;;;;;;;;;;;;;8.48;72.38;101038.84;107273;1256;67196;-82
2023/03/21 01:35:22;;;;;;;;;;;;;;;8.48;72.42;101036.73;108304;1257;125168;-82
2023/03/21 01:37:50;;;;;;;;;;;;;;;8.49;72.41;101038.70;107505;1262;62229;-82
2023/03/21 01:40:19;;;;;;;;;;;;;;;8.50;72.47;101035.95;107470;1257;124236;-82
2023/03/21 01:42:48;;;;;;;;;;;;;;;8.50;72.41;101038.58;107620;1256;74852;-82
2023/03/21 01:45:34;;;;;;;;;;;;;;;8.47;72.39;101041.61;107363;1255;65935;-82
2023/03/21 01:48:01;;;;;;;;;;;;;;;8.45;72.40;101039.77;107400;1257;72678;-82
2023/03/21 01:50:28;;;;;;;;;;;;;;;8.45;72.48;101039.25;107125;1262;61455;-82
2023/03/21 01:52:56;;;;;;;;;;;;;;;8.45;72.49;101041.86;107250;1257;124583;-83
2023/03/21 01:55:23;;;;;;;;;;;;;;;8.44;72.41;101043.23;107624;1254;73409;-83
2023/03/21 01:57:52;;;;;;;;;;;;;;;8.42;72.41;101042.27;107356;1253;124351;-84
2023/03/21 02:00:19;;;;;;;;;;;;;;;8.42;72.39;101037.72;108310;1260;72677;-84
2023/03/21 02:02:56;;;;;;;;;;;;;;;8.42;72.49;101043.48;107543;1257;59887;-79
2023/03/21 02:05:40;;;;;;;;;;;;;;;8.39;72.40;101043.88;107657;1254;124281;-81
2023/03/21 02:08:07;;;;;;;;;;;;;;;8.37;72.45;101049.96;108945;1260;74732;-81
2023/03/21 02:10:35;;;;;;;;;;;;;;;8.36;72.44;101049.55;108531;1254;124022;-81
2023/03/21 02:13:08;;;;;;;;;;;;;;;8.35;72.42;101051.45;108929;1254;71500;-82
2023/03/21 02:15:36;;;;;;;;;;;;;;;8.32;72.35;101053.77;108920;1253;124305;-82
2023/03/21 02:18:06;;;;;;;;;;;;;;;8.28;72.45;101058.51;107949;1254;60278;-81
2023/03/21 02:20:36;;;;;;;;;;;;;;;8.25;72.48;101060.48;108094;1258;72889;-81
2023/03/21 02:23:10;;;;;;;;;;;;;;;8.26;72.55;101063.46;107746;1254;124847;-82
2023/03/21 02:25:40;;;;;;;;;;;;;;;8.27;72.59;101066.35;107821;1253;72536;-81
2023/03/21 02:28:27;;;;;;;;;;;;;;;8.30;72.58;101070.48;107705;1254;124952;-81
2023/03/21 02:31:03;;;;;;;;;;;;;;;8.29;72.43;101069.04;107827;1259;61240;-81
2023/03/21 02:33:37;;;;;;;;;;;;;;;8.31;72.57;101070.52;107676;1254;75174;-81
2023/03/21 02:36:15;;;;;;;;;;;;;;;8.34;72.63;101066.63;108218;1254;65202;-81
2023/03/21 02:38:46;;;;;;;;;;;;;;;8.37;72.64;101068.63;107852;1254;73207;-81
2023/03/21 02:41:21;;;;;;;;;;;;;;;8.37;72.55;101060.29;107821;1259;125872;-81
2023/03/21 02:43:54;;;;;;;;;;;;;;;8.40;72.57;101063.17;107921;1261;59513;-81
2023/03/21 02:46:23;;;;;;;;;;;;;;;8.43;72.58;101059.61;107952;1255;125775;-81
2023/03/21 02:48:52;;;;;;;;;;;;;;;8.45;72.60;101059.02;107702;1254;67079;-81
2023/03/21 02:51:20;;;;;;;;;;;;;;;8.44;72.46;101055.81;107857;1254;72705;-81
2023/03/21 02:54:10;;;;;;;;;;;;;;;8.41;72.35;101059.71;107589;1261;125573;-81
2023/03/21 02:56:39;;;;;;;;;;;;;;;8.34;72.15;101060.52;107788;1260;61346;-81
2023/03/21 02:59:06;;;;;;;;;;;;;;;8.27;72.26;101062.16;108248;1259;125509;-81
2023/03/21 03:01:34;;;;;;;;;;;;;;;8.24;72.27;101059.03;108038;1262;67063;-81
2023/03/21 03:04:01;;;;;;;;;;;;;;;8.25;72.44;101060.82;107886;1260;124797;-81
2023/03/21 03:06:28;;;;;;;;;;;;;;;8.28;72.58;101061.29;107918;1258;59450;-81
2023/03/21 03:09:08;;;;;;;;;;;;;;;8.30;72.34;101059.27;107688;1260;60080;-81
2023/03/21 03:11:56;;;;;;;;;;;;;;;8.29;72.33;101058.19;107309;1258;124274;-81
2023/03/21 03:14:32;;;;;;;;;;;;;;;8.25;72.17;101064.66;107504;1261;66418;-81
2023/03/21 03:17:15;;;;;;;;;;;;;;;8.19;72.15;101066.72;107389;1260;124856;-81
2023/03/21 03:19:54;;;;;;;;;;;;;;;8.16;72.23;101072.02;107531;1259;61269;-81
2023/03/21 03:22:26;;;;;;;;;;;;;;;8.09;72.09;101079.08;107359;1256;124395;-81
2023/03/21 03:24:58;;;;;;;;;;;;;;;8.02;72.16;101080.19;107569;1260;73523;-80
2023/03/21 03:27:45;;;;;;;;;;;;;;;7.94;72.10;101082.86;108845;1257;67099;-81
2023/03/21 03:30:12;;;;;;;;;;;;;;;7.83;72.05;101082.91;108109;1259;72715;-79
2023/03/21 03:32:43;;;;;;;;;;;;;;;7.76;72.18;101083.85;107470;1257;61292;-79
2023/03/21 03:35:12;;;;;;;;;;;;;;;7.73;72.21;101083.20;107626;1256;124970;-79
2023/03/21 03:37:39;;;;;;;;;;;;;;;7.69;72.18;101080.77;107722;1260;74042;-79
2023/03/21 03:40:07;;;;;;;;;;;;;;;7.64;72.20;101082.28;107464;1257;124992;-79
2023/03/21 03:42:35;;;;;;;;;;;;;;;7.62;72.26;101090.23;107652;1260;73217;-80
2023/03/21 03:45:03;;;;;;;;;;;;;;;7.60;72.23;101086.86;107681;1259;61213;-81
2023/03/21 03:47:45;;;;;;;;;;;;;;;7.58;72.28;101096.57;107683;1258;125138;-81
2023/03/21 03:50:18;;;;;;;;;;;;;;;7.56;72.02;101098.02;107766;1257;73204;-81
2023/03/21 03:52:49;;;;;;;;;;;;;;;7.52;72.05;101098.93;107619;1257;124888;-81
2023/03/21 03:55:16;;;;;;;;;;;;;;;7.51;72.08;101098.17;107792;1257;72975;-80
2023/03/21 03:57:43;;;;;;;;;;;;;;;7.48;72.16;101092.45;107973;1260;124474;-80
2023/03/21 04:00:11;;;;;;;;;;;;;;;7.46;72.10;101097.08;108159;1257;59861;-80
2023/03/21 04:02:38;;;;;;;;;;;;;;;7.43;71.99;101099.73;107685;1257;73169;-79
2023/03/21 04:05:06;;;;;;;;;;;;;;;7.40;72.08;101096.48;107651;1255;124073;-79
2023/03/21 04:07:35;;;;;;;;;;;;;;;7.35;72.01;101091.05;107607;1256;71453;-80
2023/03/21 04:10:02;;;;;;;;;;;;;;;7.29;71.95;101094.76;107560;1258;124013;-80
2023/03/21 04:12:29;;;;;;;;;;;;;;;7.22;72.04;101095.00;107558;1260;59946;-80
2023/03/21 04:14:56;;;;;;;;;;;;;;;7.16;72.03;101102.06;108923;1256;72956;-79
2023/03/21 04:17:23;;;;;;;;;;;;;;;7.11;72.12;101104.27;107728;1256;124733;-79
2023/03/21 04:19:51;;;;;;;;;;;;;;;7.06;72.08;101106.66;107697;1257;72390;-80
2023/03/21 04:22:18;;;;;;;;;;;;;;;7.03;72.31;101110.20;107828;1257;125411;-79
2023/03/21 04:24:45;;;;;;;;;;;;;;;7.02;72.32;101107.02;109040;1257;60406;-80
2023/03/21 04:27:12;;;;;;;;;;;;;;;6.96;72.13;101106.04;109027;1256;73056;-79
2023/03/21 04:29:39;;;;;;;;;;;;;;;6.86;72.10;101105.08;109006;1257;125224;-79
2023/03/21 04:32:18;;;;;;;;;;;;;;;6.74;71.94;101102.25;109102;1257;72603;-79
2023/03/21 04:34:48;;;;;;;;;;;;;;;6.59;72.02;101106.84;108948;1254;124909;-79
2023/03/21 04:37:16;;;;;;;;;;;;;;;6.48;72.07;101111.50;107973;1256;61237;-80
2023/03/21 04:39:45;;;;;;;;;;;;;;;6.37;72.01;101114.13;107576;1257;125115;-80
2023/03/21 04:42:17;;;;;;;;;;;;;;;6.27;72.06;101118.19;107694;1260;67061;-80
2023/03/21 04:44:46;;;;;;;;;;;;;;;6.20;72.27;101120.48;108081;1257;73685;-80
2023/03/21 04:47:14;;;;;;;;;;;;;;;6.14;72.26;101121.92;107687;1260;125825;-81
2023/03/21 04:49:46;;;;;;;;;;;;;;;6.11;72.32;101125.59;107786;1255;61265;-81
2023/03/21 04:52:14;;;;;;;;;;;;;;;6.09;72.53;101128.63;108134;1257;125821;-81
2023/03/21 04:54:41;;;;;;;;;;;;;;;6.08;72.45;101131.93;108265;1257;66069;-81
2023/03/21 04:57:09;;;;;;;;;;;;;;;6.06;72.55;101132.34;107929;1254;73082;-82
2023/03/21 04:59:36;;;;;;;;;;;;;;;5.99;72.48;101127.65;107622;1254;124686;-80
2023/03/21 05:02:03;;;;;;;;;;;;;;;5.98;72.52;101132.83;108074;1254;60892;-79
2023/03/21 05:04:31;;;;;;;;;;;;;;;5.96;72.68;101134.09;107906;1254;123922;-79
2023/03/21 05:06:58;;;;;;;;;;;;;;;5.93;72.67;101137.20;107548;1254;66780;-84
2023/03/21 05:09:27;;;;;;;;;;;;;;;5.91;72.76;101139.19;107752;1253;72924;-86
2023/03/21 05:11:56;;;;;;;;;;;;;;;5.90;72.89;101142.84;107827;1253;124469;-83
2023/03/21 05:14:24;;;;;;;;;;;;;;;5.91;72.86;101147.77;107758;1255;60089;-82
2023/03/21 05:16:55;;;;;;;;;;;;;;;5.97;73.16;101149.33;107816;1254;124010;-82
2023/03/21 05:19:33;;;;;;;;;;;;;;;6.06;73.27;101151.16;107648;1254;65802;-83
2023/03/21 05:22:03;;;;;;;;;;;;;;;6.17;73.27;101155.34;107647;1254;124370;-83
2023/03/21 05:24:31;;;;;;;;;;;;;;;6.29;73.40;101154.36;107926;1254;62279;-85
2023/03/21 05:27:01;;;;;;;;;;;;;;;6.44;73.48;101157.36;107987;1254;61407;-84
2023/03/21 05:29:30;;;;;;;;;;;;;;;6.64;73.36;101159.38;108146;1254;123949;-83
2023/03/21 05:32:01;;;;;;;;;;;;;;;6.82;73.21;101161.08;108212;1254;65214;-82
2023/03/21 05:34:28;;;;;;;;;;;;;;;7.00;73.10;101160.33;107894;1254;124056;-82
2023/03/21 05:36:55;;;;;;;;;;;;;;;7.14;72.88;101157.81;108205;1253;59545;-79
2023/03/21 05:39:22;;;;;;;;;;;;;;;7.27;72.72;101159.98;108092;1256;60315;-79
2023/03/21 05:41:49;;;;;;;;;;;;;;;7.42;72.52;101164.48;107986;1254;123971;-80
2023/03/21 05:44:16;;;;;;;;;;;;;;;7.57;72.48;101165.69;107929;1254;66562;-81
2023/03/21 05:46:43;;;;;;;;;;;;;;;7.67;72.22;101165.41;107933;1253;125499;-79
2023/03/21 05:49:11;;;;;;;;;;;;;;;7.77;72.00;101169.83;107993;1254;61352;-83
2023/03/21 05:51:38;;;;;;;;;;;;;;;7.80;71.67;101175.02;108107;1254;59265;-87
2023/03/21 05:54:28;;;;;;;;;;;;;;;7.83;71.51;101176.52;108391;1254;124695;-81
2023/03/21 05:57:00;;;;;;;;;;;;;;;7.90;71.47;101175.15;108423;1254;66492;-85
2023/03/21 05:59:27;;;;;;;;;;;;;;;8.04;71.42;101179.54;107824;1255;125246;-86
2023/03/21 06:01:54;;;;;;;;;;;;;;;8.14;71.21;101174.20;107748;1254;60155;-84
2023/03/21 06:04:21;;;;;;;;;;;;;;;8.18;70.88;101173.83;107668;1256;125649;-82
2023/03/21 06:06:49;;;;;;;;;;;;;;;8.26;70.99;101176.97;107842;1259;74700;-84
2023/03/21 06:09:16;;;;;;;;;;;;;;;8.39;70.82;101177.00;107725;1254;67603;-84
2023/03/21 06:11:57;;;;;;;;;;;;;;;8.51;70.69;101177.66;107741;1254;125535;-87
2023/03/21 06:14:25;;;;;;;;;;;;;;;8.64;70.68;101176.09;107641;1256;61404;-81
2023/03/21 06:16:52;;;;;;;;;;;;;;;8.74;70.33;101178.41;108093;1253;125217;-82
2023/03/21 06:19:20;;;;;;;;;;;;;;;8.79;70.01;101183.66;107554;1254;73216;-82
2023/03/21 06:21:47;;;;;;;;;;;;;;;8.79;69.46;101189.77;107572;1253;124697;-80
2023/03/21 06:24:14;;;;;;;;;;;;;;;8.77;69.41;101192.87;107722;1254;71710;-82
2023/03/21 06:26:43;;;;;;;;;;;;;;;8.81;69.40;101191.27;107714;1254;59846;-81
2023/03/21 06:29:18;;;;;;;;;;;;;;;8.82;69.06;101195.84;107970;1253;124163;-81
2023/03/21 06:31:47;;;;;;;;;;;;;;;8.79;69.05;101197.84;107820;1257;73154;-80
2023/03/21 06:34:14;;;;;;;;;;;;;;;8.79;68.89;101203.27;107699;1254;124206;-84
2023/03/21 06:36:43;;;;;;;;;;;;;;;8.81;68.80;101205.80;107488;1254;73056;-84
2023/03/21 06:39:17;;;;;;;;;;;;;;;8.88;68.83;101206.58;107529;1254;59968;-84
2023/03/21 06:41:46;;;;;;;;;;;;;;;9.00;68.72;101211.92;107400;1259;124732;-84
2023/03/21 06:44:13;;;;;;;;;;;;;;;9.09;68.54;101210.55;107398;1253;74497;-85
2023/03/21 06:46:54;;;;;;;;;;;;;;;9.15;68.26;101214.30;107412;1253;124279;-84
2023/03/21 06:49:21;;;;;;;;;;;;;;;9.16;68.00;101215.55;107636;1254;72723;-79
2023/03/21 06:51:48;;;;;;;;;;;;;;;9.19;67.91;101215.32;107650;1253;124896;-83
2023/03/21 06:54:29;;;;;;;;;;;;;;;9.24;67.74;101219.52;107538;1254;61363;-85
2023/03/21 06:56:56;;;;;;;;;;;;;;;9.32;67.72;101220.71;107428;1254;72599;-84
2023/03/21 06:59:23;;;;;;;;;;;;;;;9.39;67.69;101218.69;107920;1254;124157;-80
2023/03/21 07:01:52;;;;;;;;;;;;;;;9.43;67.38;101219.20;108656;1253;72775;-80
2023/03/21 07:04:21;;;;;;;;;;;;;;;9.43;67.21;101219.36;107755;1253;124423;-80
2023/03/21 07:06:48;;;;;;;;;;;;;;;9.44;67.12;101223.45;107616;1254;61346;-80
2023/03/21 07:09:17;;;;;;;;;;;;;;;9.49;67.20;101230.28;107366;1254;75216;-80
2023/03/21 07:11:58;;;;;;;;;;;;;;;9.56;66.88;101232.78;107297;1254;124286;-85
2023/03/21 07:14:26;;;;;;;;;;;;;;;9.55;66.80;101235.04;107189;1253;72451;-84
2023/03/21 07:17:00;;;;;;;;;;;;;;;9.60;66.74;101238.71;106993;1257;124297;-85
2023/03/21 07:19:27;;;;;;;;;;;;;;;9.64;66.48;101241.83;107479;1253;61268;-84
2023/03/21 07:21:56;;;;;;;;;;;;;;;9.61;66.30;101235.98;107373;1253;124460;-84
2023/03/21 07:24:31;;;;;;;;;;;;;;;9.62;66.20;101239.66;107174;1253;65112;-85
2023/03/21 07:27:16;;;;;;;;;;;;;;;9.70;66.39;101240.14;107214;1253;71034;-85
2023/03/21 07:29:46;;;;;;;;;;;;;;;9.83;66.21;101239.23;107213;1253;124605;-84
2023/03/21 07:32:13;;;;;;;;;;;;;;;9.91;65.97;101237.23;107578;1256;61792;-85
2023/03/21 07:34:44;;;;;;;;;;;;;;;9.86;65.32;101240.71;107766;1253;124564;-84
2023/03/21 07:37:11;;;;;;;;;;;;;;;9.77;65.14;101241.46;107476;1254;65813;-84
2023/03/21 07:39:38;;;;;;;;;;;;;;;9.72;65.04;101237.77;107540;1253;73296;-84
2023/03/21 07:42:07;;;;;;;;;;;;;;;9.74;65.10;101240.45;107638;1254;124199;-84
2023/03/21 07:44:34;;;;;;;;;;;;;;;9.78;65.06;101237.28;107735;1254;61263;-85
2023/03/21 07:47:01;;;;;;;;;;;;;;;9.81;65.08;101240.68;107260;1253;124285;-84
2023/03/21 07:49:29;;;;;;;;;;;;;;;9.84;64.89;101243.46;107230;1254;67433;-84
2023/03/21 07:51:56;;;;;;;;;;;;;;;9.70;64.39;101244.17;107750;1253;125635;-84
2023/03/21 07:54:24;;;;;;;;;;;;;;;9.59;64.56;101246.05;107462;1254;59528;-84
2023/03/21 07:56:52;;;;;;;;;;;;;;;9.58;64.68;101249.32;107482;1253;59837;-84
2023/03/21 07:59:25;;;;;;;;;;;;;;;9.59;64.40;101255.34;107374;1253;124226;-84
2023/03/21 08:02:20;;;;;;;;;;;;;;;9.57;64.59;101253.15;107450;1253;67058;-83
2023/03/21 08:04:52;;;;;;;;;;;;;;;9.58;64.53;101256.55;107493;1254;122998;-84
2023/03/21 08:07:26;;;;;;;;;;;;;;;9.60;64.46;101262.38;107576;1253;61053;-84
2023/03/21 08:09:54;;;;;;;;;;;;;;;9.60;64.50;101263.27;107543;1253;124186;-84
2023/03/21 08:12:22;;;;;;;;;;;;;;;9.66;64.26;101267.33;107583;1254;73266;-84
2023/03/21 08:14:50;;;;;;;;;;;;;;;9.64;64.17;101266.40;107498;1253;67085;-85
2023/03/21 08:17:17;;;;;;;;;;;;;;;9.72;64.39;101266.34;107169;1253;124132;-85
2023/03/21 08:19:57;;;;;;;;;;;;;;;9.90;64.50;101262.42;107405;1254;60898;-85
2023/03/21 08:22:24;;;;;;;;;;;;;;;10.07;64.26;101266.19;107255;1254;124830;-85
2023/03/21 08:24:51;;;;;;;;;;;;;;;10.17;63.97;101272.29;107527;1256;73021;-84
2023/03/21 08:27:20;;;;;;;;;;;;;;;10.24;63.88;101270.80;107685;1253;65844;-85
2023/03/21 08:29:47;;;;;;;;;;;;;;;10.29;63.35;101274.65;107477;1254;124231;-85
2023/03/21 08:32:32;;;;;;;;;;;;;;;10.28;63.17;101273.91;107766;1256;60302;-85
2023/03/21 08:35:00;;;;;;;;;;;;;;;10.36;63.23;101281.26;107381;1253;124645;-86
2023/03/21 08:37:30;;;;;;;;;;;;;;;10.50;63.04;101288.23;107269;1253;73338;-85
2023/03/21 08:39:59;;;;;;;;;;;;;;;10.65;62.89;101287.84;107469;1253;124678;-84
2023/03/21 08:42:28;;;;;;;;;;;;;;;10.78;62.67;101285.64;107732;1253;72723;-85
2023/03/21 08:45:04;;;;;;;;;;;;;;;10.90;62.54;101285.66;107844;1253;59587;-84
2023/03/21 08:47:33;;;;;;;;;;;;;;;11.01;62.42;101287.95;108062;1253;124265;-84
2023/03/21 08:50:06;;;;;;;;;;;;;;;11.16;62.44;101287.91;107974;1253;74705;-84
2023/03/21 08:52:42;;;;;;;;;;;;;;;11.29;61.92;101294.63;107470;1253;124237;-85
2023/03/21 08:55:16;;;;;;;;;;;;;;;11.28;61.56;101299.35;107436;1256;73208;-84
2023/03/21 08:57:56;;;;;;;;;;;;;;;11.13;60.99;101302.22;107641;1256;124883;-84
2023/03/21 09:00:24;;;;;;;;;;;;;;;10.93;60.78;101309.48;107827;1256;59810;-84
2023/03/21 09:02:58;;;;;;;;;;;;;;;10.75;60.77;101307.29;107449;1254;74630;-84
2023/03/21 09:05:27;;;;;;;;;;;;;;;10.70;60.96;101311.02;107340;1256;124262;-80
2023/03/21 09:07:54;;;;;;;;;;;;;;;10.62;60.47;101313.56;107408;1255;72730;-80
2023/03/21 09:10:23;;;;;;;;;;;;;;;10.50;60.50;101309.11;107553;1255;124835;-80
2023/03/21 09:12:50;;;;;;;;;;;;;;;10.53;60.56;101313.06;108968;1256;59276;-84
2023/03/21 09:15:27;;;;;;;;;;;;;;;10.47;59.85;101313.56;107655;1256;73181;-84
2023/03/21 09:17:57;;;;;;;;;;;;;;;10.40;60.01;101307.02;107243;1256;124517;-86
2023/03/21 09:20:29;;;;;;;;;;;;;;;10.47;60.12;101310.77;107654;1256;72710;-79
2023/03/21 09:23:02;;;;;;;;;;;;;;;10.60;60.27;101309.96;107397;1256;124767;-85
2023/03/21 09:25:30;;;;;;;;;;;;;;;10.80;60.09;101311.48;107108;1255;61346;-80
2023/03/21 09:27:57;;;;;;;;;;;;;;;10.98;59.80;101313.84;107219;1255;124971;-81
2023/03/21 09:30:24;;;;;;;;;;;;;;;11.10;59.79;101311.23;107436;1256;67067;-80
2023/03/21 09:32:54;;;;;;;;;;;;;;;11.30;59.38;101318.73;107859;1255;72393;-80
2023/03/21 09:35:21;;;;;;;;;;;;;;;11.36;58.84;101316.63;107984;1255;124357;-80
2023/03/21 09:37:48;;;;;;;;;;;;;;;11.53;59.19;101315.38;108074;1256;59540;-80
2023/03/21 09:40:18;;;;;;;;;;;;;;;11.80;59.01;101308.80;107663;1255;1032155;-80
2023/03/21 09:42:58;;;;;;;;;;;;;;;12.00;58.47;101312.38;108883;1259;65872;-80
2023/03/21 09:45:34;;;;;;;;;;;;;;;12.11;58.25;101308.30;107470;1255;71171;-80
2023/03/21 09:48:01;;;;;;;;;;;;;;;12.24;58.06;101307.60;107272;1256;125137;-80
2023/03/21 09:50:30;;;;;;;;;;;;;;;12.27;57.64;101306.79;107533;1256;60903;-80
2023/03/21 09:52:59;;;;;;;;;;;;;;;12.21;57.31;101302.60;107629;1256;124432;-80
2023/03/21 09:55:29;;;;;;;;;;;;;;;12.30;57.39;101304.59;107750;1254;67216;-84
2023/03/21 09:58:15;;;;;;;;;;;;;;;12.45;57.34;101302.86;107829;1253;124422;-83
2023/03/21 10:00:44;;;;;;;;;;;;;;;12.66;57.20;101309.92;108064;1253;60967;-83
2023/03/21 10:03:33;;;;;;;;;;;;;;;12.83;57.02;101308.59;108053;1253;59476;-84
2023/03/21 10:06:04;;;;;;;;;;;;;;;12.89;56.43;101307.14;108133;1253;124701;-84
2023/03/21 10:08:35;;;;;;;;;;;;;;;12.92;56.09;101308.60;108015;1260;65743;-80
2023/03/21 10:11:11;;;;;;;;;;;;;;;12.86;55.89;101303.36;107975;1253;124312;-80
2023/03/21 10:13:48;;;;;;;;;;;;;;;12.66;55.59;101302.70;108052;1253;61340;-80
2023/03/21 10:16:29;;;;;;;;;;;;;;;12.42;55.43;101302.45;107411;1254;124652;-84
2023/03/21 10:18:56;;;;;;;;;;;;;;;12.28;55.45;101304.69;107977;1253;74697;-84
2023/03/21 10:21:24;;;;;;;;;;;;;;;12.24;55.64;101312.16;108194;1253;65580;-84
2023/03/21 10:23:51;;;;;;;;;;;;;;;12.17;55.62;101313.20;108249;1253;124631;-84
2023/03/21 10:26:18;;;;;;;;;;;;;;;12.05;55.28;101317.98;108184;1253;59537;-84
2023/03/21 10:28:47;;;;;;;;;;;;;;;11.91;55.44;101315.27;108081;1253;124391;-84
2023/03/21 10:31:15;;;;;;;;;;;;;;;11.94;55.65;101315.54;108225;1254;73798;-84
2023/03/21 10:33:42;;;;;;;;;;;;;;;12.12;55.87;101320.63;108054;1253;65679;-84
2023/03/21 10:36:30;;;;;;;;;;;;;;;12.25;55.49;101316.25;107954;1254;71386;-83
2023/03/21 10:39:19;;;;;;;;;;;;;;;12.34;55.27;101316.65;107985;1253;61224;-83
2023/03/21 10:41:47;;;;;;;;;;;;;;;12.52;55.39;101314.30;107593;1253;124378;-83
2023/03/21 10:44:31;;;;;;;;;;;;;;;12.72;55.18;101316.58;107433;1254;74258;-85
2023/03/21 10:47:06;;;;;;;;;;;;;;;12.90;55.01;101312.45;107284;1253;124402;-84
2023/03/21 10:49:33;;;;;;;;;;;;;;;13.04;54.92;101317.73;107728;1254;71343;-80
2023/03/21 10:52:08;;;;;;;;;;;;;;;13.03;54.40;101318.94;107622;1253;124979;-80
2023/03/21 10:54:35;;;;;;;;;;;;;;;12.89;54.20;101321.05;107644;1253;61287;-80
2023/03/21 10:57:14;;;;;;;;;;;;;;;12.72;53.99;101316.75;107484;1256;75049;-80
2023/03/21 10:59:43;;;;;;;;;;;;;;;12.50;53.59;101323.41;107474;1255;124224;-80
2023/03/21 11:02:29;;;;;;;;;;;;;;;12.24;53.77;101322.54;107607;1256;71028;-80
2023/03/21 11:04:57;;;;;;;;;;;;;;;11.97;53.70;101319.14;107361;1256;124330;-80
2023/03/21 11:07:29;;;;;;;;;;;;;;;11.88;54.13;101309.02;107156;1255;61295;-80
2023/03/21 11:10:01;;;;;;;;;;;;;;;11.95;54.15;101313.46;107257;1256;125189;-79
2023/03/21 11:12:29;;;;;;;;;;;;;;;11.92;53.85;101311.27;107372;1256;64662;-79
2023/03/21 11:14:56;;;;;;;;;;;;;;;11.96;54.05;101307.34;107620;1255;72713;-81
2023/03/21 11:17:26;;;;;;;;;;;;;;;12.00;54.17;101304.64;107449;1255;124889;-80
2023/03/21 11:19:58;;;;;;;;;;;;;;;12.16;54.39;101306.65;107541;1257;61779;-80
2023/03/21 11:22:29;;;;;;;;;;;;;;;12.29;54.32;101304.02;107874;1254;125122;-79
2023/03/21 11:24:56;;;;;;;;;;;;;;;12.38;54.19;101304.27;107686;1255;65708;-80
2023/03/21 11:27:28;;;;;;;;;;;;;;;12.37;53.75;101304.75;107899;1256;72432;-84
2023/03/21 11:29:56;;;;;;;;;;;;;;;12.21;53.57;101310.34;107654;1255;124421;-84
2023/03/21 11:32:45;;;;;;;;;;;;;;;12.18;53.67;101306.73;107395;1259;59955;-84
2023/03/21 11:35:13;;;;;;;;;;;;;;;12.38;53.89;101307.42;107301;1255;124304;-84
2023/03/21 11:37:44;;;;;;;;;;;;;;;12.65;53.91;101307.60;107608;1256;67042;-84
2023/03/21 11:40:22;;;;;;;;;;;;;;;12.94;53.90;101300.21;107449;1255;124497;-84
2023/03/21 11:43:10;;;;;;;;;;;;;;;13.25;53.89;101297.59;107560;1254;60898;-84
2023/03/21 11:45:40;;;;;;;;;;;;;;;13.54;53.57;101292.45;107754;1255;61108;-85
2023/03/21 11:48:11;;;;;;;;;;;;;;;13.76;53.19;101294.48;107705;1256;124521;-84
2023/03/21 11:50:50;;;;;;;;;;;;;;;13.93;52.72;101293.06;107890;1257;65093;-85
2023/03/21 11:53:20;;;;;;;;;;;;;;;14.16;52.74;101291.95;107490;1254;124261;-85
2023/03/21 11:55:50;;;;;;;;;;;;;;;14.44;52.35;101289.80;107627;1254;62044;-85
2023/03/21 11:58:36;;;;;;;;;;;;;;;14.67;52.09;101287.92;108043;1253;125294;-85
2023/03/21 12:01:17;;;;;;;;;;;;;;;14.74;51.60;101289.27;108059;1255;75082;-85
2023/03/21 12:03:46;;;;;;;;;;;;;;;14.73;51.34;101285.73;107431;1256;66915;-85
2023/03/21 12:06:18;;;;;;;;;;;;;;;14.75;51.30;101285.77;107377;1256;73529;-85
2023/03/21 12:08:50;;;;;;;;;;;;;;;14.71;50.92;101285.53;107336;1253;61330;-84
2023/03/21 12:11:24;;;;;;;;;;;;;;;14.58;50.57;101285.29;107429;1254;124302;-85
2023/03/21 12:14:01;;;;;;;;;;;;;;;14.27;50.42;101284.91;107890;1257;74967;-84
2023/03/21 12:16:42;;;;;;;;;;;;;;;14.07;50.44;101282.05;107804;1256;125093;-84
2023/03/21 12:19:29;;;;;;;;;;;;;;;13.94;50.52;101282.86;108065;1256;73166;-84
2023/03/21 12:21:57;;;;;;;;;;;;;;;13.87;50.53;101278.83;107589;1253;124644;-85
2023/03/21 12:24:27;;;;;;;;;;;;;;;13.93;50.69;101276.67;107335;1253;62517;-85
2023/03/21 12:27:05;;;;;;;;;;;;;;;13.98;50.63;101280.30;107366;1256;73149;-84
2023/03/21 12:29:38;;;;;;;;;;;;;;;14.03;50.58;101272.81;107252;1255;124633;-85
2023/03/21 12:32:14;;;;;;;;;;;;;;;13.99;50.32;101267.24;107212;1253;71434;-84
2023/03/21 12:34:48;;;;;;;;;;;;;;;13.93;50.18;101263.08;107394;1255;124725;-85
2023/03/21 12:37:36;;;;;;;;;;;;;;;13.87;50.27;101259.79;107426;1253;60382;-85
2023/03/21 12:40:08;;;;;;;;;;;;;;;13.97;50.58;101256.29;107150;1253;124662;-85
2023/03/21 12:43:09;;;;;;;;;;;;;;;14.15;50.61;101255.39;107097;1253;67075;-85
2023/03/21 12:45:38;;;;;;;;;;;;;;;14.35;50.25;101253.27;106913;1255;73303;-84
2023/03/21 12:48:16;;;;;;;;;;;;;;;14.30;49.96;101252.29;107117;1260;124471;-85
2023/03/21 12:50:43;;;;;;;;;;;;;;;14.19;49.83;101255.45;107286;1253;61204;-85